createdAt,value
2022-11-27T00:04:59.288Z,10.77
2022-11-27T00:10:02.283Z,11.30
2022-11-27T00:15:07.244Z,9.67
2022-11-27T00:20:10.795Z,9.87
2022-11-27T00:25:13.776Z,12.53
2022-11-27T00:30:18.835Z,8.80
2022-11-27T00:35:22.018Z,9.47
2022-11-27T00:40:25.009Z,7.93
2022-11-27T00:45:30.222Z,8.90
2022-11-27T00:50:33.307Z,9.07
2022-11-27T00:55:36.215Z,7.90
2022-11-27T01:00:40.643Z,9.40
2022-11-27T01:05:43.667Z,6.43
2022-11-27T01:10:54.676Z,8.57
2022-11-27T01:16:05.045Z,11.47
2022-11-27T01:21:08.715Z,7.97
2022-11-27T01:26:13.153Z,6.07
2022-11-27T01:31:19.730Z,6.00
2022-11-27T01:36:23.300Z,8.10
2022-11-27T01:41:28.671Z,7.40
2022-11-27T01:46:48.990Z,6.13
2022-11-27T01:51:55.935Z,6.50
2022-11-27T01:57:02.805Z,6.57
2022-11-27T02:02:07.731Z,6.37
2022-11-27T02:07:11.002Z,8.43
2022-11-27T02:12:25.287Z,9.73
2022-11-27T02:17:37.298Z,7.17
2022-11-27T02:22:57.552Z,6.87
2022-11-27T02:28:22.772Z,6.63
2022-11-27T02:33:28.148Z,5.90
2022-11-27T02:38:36.743Z,6.87
2022-11-27T02:43:43.678Z,5.67
2022-11-27T02:48:50.859Z,4.20
2022-11-27T02:54:00.001Z,5.33
2022-11-27T02:59:07.757Z,4.67
2022-11-27T03:04:15.833Z,9.30
2022-11-27T03:09:23.506Z,5.97
2022-11-27T03:14:27.585Z,5.97
2022-11-27T03:19:44.621Z,6.43
2022-11-27T03:24:49.947Z,3.87
2022-11-27T03:29:57.789Z,5.57
2022-11-27T03:35:03.664Z,6.07
2022-11-27T03:40:08.833Z,4.20
2022-11-27T03:45:24.062Z,6.20
2022-11-27T03:50:38.686Z,5.17
2022-11-27T03:55:51.238Z,7.67
2022-11-27T04:00:55.851Z,4.93
2022-11-27T04:06:00.640Z,5.53
2022-11-27T04:11:03.715Z,4.20
2022-11-27T04:16:07.749Z,5.40
2022-11-27T04:21:12.766Z,6.30
2022-11-27T04:26:15.675Z,6.57
2022-11-27T04:31:18.894Z,6.87
2022-11-27T04:36:23.568Z,4.10
2022-11-27T04:41:26.579Z,3.60
2022-11-27T04:46:29.606Z,3.90
2022-11-27T04:51:33.980Z,3.73
2022-11-27T04:56:37.014Z,5.93
2022-11-27T05:01:40.078Z,4.77
2022-11-27T05:06:44.394Z,4.30
2022-11-27T05:11:47.744Z,5.83
2022-11-27T05:16:53.351Z,3.90
2022-11-27T05:21:58.593Z,5.20
2022-11-27T05:27:01.808Z,5.50
2022-11-27T05:32:05.210Z,3.63
2022-11-27T05:37:09.735Z,4.90
2022-11-27T05:42:12.913Z,5.17
2022-11-27T05:47:15.915Z,4.67
2022-11-27T05:52:20.274Z,4.70
2022-11-27T05:57:23.673Z,5.73
2022-11-27T06:02:29.518Z,6.13
2022-11-27T06:07:34.387Z,6.10
2022-11-27T06:12:37.946Z,8.00
2022-11-27T06:17:41.121Z,6.80
2022-11-27T06:22:45.855Z,4.80
2022-11-27T06:27:48.888Z,6.03
2022-11-27T06:32:51.910Z,5.10
2022-11-27T06:37:56.324Z,3.60
2022-11-27T06:42:59.270Z,4.13
2022-11-27T06:48:02.262Z,5.93
2022-11-27T06:53:06.628Z,4.73
2022-11-27T06:58:09.727Z,4.47
2022-11-27T07:03:12.640Z,5.27
2022-11-27T07:08:16.943Z,4.87
2022-11-27T07:13:20.079Z,3.80
2022-11-27T07:18:23.121Z,5.27
2022-11-27T07:23:27.595Z,8.30
2022-11-27T07:28:30.627Z,6.17
2022-11-27T07:33:33.796Z,5.33
2022-11-27T07:38:38.290Z,5.43
2022-11-27T07:43:43.218Z,6.80
2022-11-27T07:48:46.695Z,6.60
2022-11-27T07:53:56.160Z,8.63
2022-11-27T07:58:59.302Z,5.23
2022-11-27T08:04:02.931Z,7.50
2022-11-27T08:09:07.265Z,7.90
2022-11-27T08:14:17.670Z,6.57
2022-11-27T08:19:20.907Z,5.33
2022-11-27T08:24:25.346Z,6.83
2022-11-27T08:29:33.738Z,8.90
2022-11-27T08:34:37.459Z,7.07
2022-11-27T08:39:41.899Z,4.83
2022-11-27T08:44:44.908Z,6.97
2022-11-27T08:49:47.966Z,7.40
2022-11-27T08:54:57.299Z,7.47
2022-11-27T09:00:00.717Z,6.37
2022-11-27T09:05:06.147Z,7.23
2022-11-27T09:10:11.216Z,8.17
2022-11-27T09:15:15.159Z,7.23
2022-11-27T09:20:18.356Z,9.20
2022-11-27T09:25:23.231Z,7.57
2022-11-27T09:30:26.254Z,9.73
2022-11-27T09:35:31.657Z,6.70
2022-11-27T09:40:36.770Z,5.13
2022-11-27T09:45:45.703Z,8.33
2022-11-27T09:50:53.308Z,6.20
2022-11-27T09:56:00.839Z,6.07
2022-11-27T10:01:11.699Z,7.07
2022-11-27T10:06:26.287Z,7.20
2022-11-27T10:11:34.627Z,7.03
2022-11-27T10:22:16.614Z,8.77
2022-11-27T10:27:30.530Z,6.53
2022-11-27T10:38:06.989Z,8.33
2022-11-27T10:43:16.885Z,7.37
2022-11-27T10:48:20.123Z,8.93
2022-11-27T10:53:28.437Z,5.93
2022-11-27T10:58:38.649Z,5.60
2022-11-27T11:03:43.063Z,5.53
2022-11-27T11:08:46.356Z,5.70
2022-11-27T11:13:51.561Z,5.03
2022-11-27T11:18:56.583Z,6.40
2022-11-27T11:24:02.348Z,6.33
2022-11-27T11:29:22.649Z,4.10
2022-11-27T11:34:28.959Z,7.37
2022-11-27T11:39:35.201Z,5.30
2022-11-27T11:44:41.436Z,4.93
2022-11-27T11:49:44.757Z,4.67
2022-11-27T11:54:59.948Z,5.87
2022-11-27T12:00:10.960Z,6.07
2022-11-27T12:05:25.898Z,7.23
2022-11-27T12:10:34.643Z,6.93
2022-11-27T12:15:45.820Z,9.03
2022-11-27T12:21:00.011Z,4.80
2022-11-27T12:26:14.245Z,4.67
2022-11-27T12:31:33.979Z,4.07
2022-11-27T12:36:58.017Z,5.80
2022-11-27T12:42:09.665Z,6.33
2022-11-27T12:47:21.205Z,5.30
2022-11-27T12:52:32.220Z,4.93
2022-11-27T12:57:40.599Z,7.03
2022-11-27T13:02:53.941Z,8.73
2022-11-27T13:08:02.183Z,6.93
2022-11-27T13:13:07.974Z,6.10
2022-11-27T13:18:20.015Z,6.80
2022-11-27T13:23:23.074Z,8.13
2022-11-27T13:28:31.660Z,8.43
2022-11-27T13:33:40.541Z,8.60
2022-11-27T13:38:45.254Z,6.07
2022-11-27T13:43:50.533Z,6.33
2022-11-27T13:49:02.215Z,6.63
2022-11-27T13:54:10.885Z,5.90
2022-11-27T13:59:15.809Z,5.03
2022-11-27T14:04:20.423Z,7.90
2022-11-27T14:09:37.715Z,8.30
2022-11-27T14:14:43.727Z,6.40
2022-11-27T14:19:59.828Z,5.30
2022-11-27T14:25:04.439Z,7.30
2022-11-27T14:30:23.837Z,6.47
2022-11-27T14:35:29.659Z,6.17
2022-11-27T14:40:32.693Z,6.53
2022-11-27T14:45:36.523Z,5.27
2022-11-27T14:50:40.856Z,6.17
2022-11-27T14:55:44.212Z,5.83
2022-11-27T15:00:53.432Z,6.57
2022-11-27T15:06:43.641Z,5.97
2022-11-27T15:11:57.908Z,7.67
2022-11-27T15:17:01.069Z,6.07
2022-11-27T15:22:06.210Z,6.93
2022-11-27T15:27:18.679Z,5.83
2022-11-27T15:32:24.025Z,5.90
2022-11-27T15:37:31.705Z,7.23
2022-11-27T15:42:34.702Z,5.53
2022-11-27T15:47:44.931Z,6.70
2022-11-27T15:52:52.200Z,5.87
2022-11-27T15:57:56.012Z,6.40
2022-11-27T16:02:59.290Z,7.10
2022-11-27T16:08:05.432Z,6.13
2022-11-27T16:13:08.688Z,7.10
2022-11-27T16:18:11.888Z,7.50
2022-11-27T16:23:16.184Z,6.30
2022-11-27T16:28:19.241Z,6.20
2022-11-27T16:33:26.317Z,11.10
2022-11-27T16:38:30.787Z,7.43
2022-11-27T16:43:36.163Z,5.67
2022-11-27T16:48:47.248Z,10.67
2022-11-27T16:53:53.541Z,6.87
2022-11-27T16:59:02.670Z,6.07
2022-11-27T17:04:09.161Z,6.10
2022-11-27T17:09:14.223Z,6.90
2022-11-27T17:14:19.826Z,7.80
2022-11-27T17:19:26.936Z,8.90
2022-11-27T17:24:31.995Z,5.87
2022-11-27T17:29:36.289Z,7.07
2022-11-27T17:34:39.469Z,6.77
2022-11-27T17:39:44.394Z,8.17
2022-11-27T17:44:47.499Z,8.43
2022-11-27T17:49:50.633Z,7.30
2022-11-27T17:54:55.144Z,7.10
2022-11-27T17:59:58.406Z,8.83
2022-11-27T18:05:01.519Z,10.43
2022-11-27T18:10:08.413Z,8.77
2022-11-27T18:15:12.647Z,8.43
2022-11-27T18:20:15.883Z,10.43
2022-11-27T18:25:20.350Z,8.27
2022-11-27T18:30:23.317Z,12.70
2022-11-27T18:35:26.359Z,11.23
2022-11-27T18:40:35.637Z,9.90
2022-11-27T18:45:38.863Z,12.07
2022-11-27T18:50:42.044Z,13.27
2022-11-27T18:55:51.520Z,11.80
2022-11-27T19:00:59.865Z,11.03
2022-11-27T19:06:04.543Z,11.63
2022-11-27T19:11:10.854Z,11.20
2022-11-27T19:16:16.766Z,10.47
2022-11-27T19:21:21.692Z,9.90
2022-11-27T19:26:31.547Z,10.93
2022-11-27T19:31:36.901Z,10.37
2022-11-27T19:36:40.536Z,10.10
2022-11-27T19:41:45.402Z,8.37
2022-11-27T19:46:50.034Z,11.30
2022-11-27T19:51:53.725Z,12.17
2022-11-27T19:57:01.217Z,10.10
2022-11-27T20:02:04.368Z,10.53
2022-11-27T20:07:08.326Z,9.93
2022-11-27T20:12:13.284Z,10.23
2022-11-27T20:17:16.323Z,11.10
2022-11-27T20:22:19.488Z,10.53
2022-11-27T20:27:33.395Z,10.33
2022-11-27T20:32:36.408Z,11.43
2022-11-27T20:37:39.416Z,10.50
2022-11-27T20:42:44.017Z,12.40
2022-11-27T20:47:47.045Z,13.63
2022-11-27T20:52:50.096Z,12.03
2022-11-27T20:57:55.730Z,12.63
2022-11-27T21:02:58.942Z,12.00
2022-11-27T21:08:02.421Z,14.60
2022-11-27T21:13:06.973Z,10.23
2022-11-27T21:18:09.988Z,10.33
2022-11-27T21:23:13.403Z,11.53
2022-11-27T21:28:17.758Z,13.33
2022-11-27T21:33:20.692Z,13.37
2022-11-27T21:38:24.070Z,11.10
2022-11-27T21:43:31.700Z,13.10
2022-11-27T21:48:50.093Z,13.63
2022-11-27T21:53:55.329Z,13.27
2022-11-27T21:59:01.812Z,13.20
2022-11-27T22:04:05.673Z,10.83
2022-11-27T22:09:15.071Z,12.10
2022-11-27T22:14:20.246Z,10.90
2022-11-27T22:19:23.783Z,14.67
2022-11-27T22:24:29.700Z,12.17
2022-11-27T22:29:34.123Z,12.73
2022-11-27T22:34:37.258Z,11.70
2022-11-27T22:39:40.408Z,10.33
2022-11-27T22:44:45.127Z,10.90
2022-11-27T22:49:48.479Z,10.23
2022-11-27T22:54:51.908Z,9.57
2022-11-27T22:59:56.632Z,11.00
2022-11-27T23:05:00.509Z,12.33
2022-11-27T23:10:04.197Z,11.80
2022-11-27T23:15:09.261Z,11.90
2022-11-27T23:20:12.811Z,10.50
2022-11-27T23:25:15.958Z,11.67
2022-11-27T23:30:20.308Z,9.80
2022-11-27T23:35:23.675Z,9.23
2022-11-27T23:40:26.753Z,11.47
2022-11-27T23:45:31.689Z,11.43
2022-11-27T23:50:34.655Z,10.80
2022-11-27T23:55:38.167Z,11.60
